To NAV CANADA Home Page Login to a new session Search on AWWS site Disclaimer Vers la page française équivalente Tips FAQ What's new on the site To the Forecasts and Observations / NOTAM section To "File a Flight Plan" website Publications and other links Update of the User's profile FIC Telephone Numbers My Weather Data Folder Route Weather Data Regional Weather Data Local Weather Data To the Forecasts and Observations / NOTAM section
Request Generated 10/19/2018 at 16:03:15 UTC . Weather information available at that time is displayed.

METAR/TAF

SUDBURY/ON    

METAR CYSB 191500Z 23018G24KT 20SM SCT180 12/06 A2976 RMK AC4 SLP088 DENSITY ALT 1300FT=
METAR CYSB 191400Z 23016G23KT 20SM SCT180 10/06 A2978 RMK AC3 SLP096=
METAR CYSB 191300Z 22010G16KT 20SM FEW220 08/05 A2979 RMK CI1 SLP100=

TAF CYSB 191340Z 1914/2002 22008G18KT P6SM FEW020 TEMPO 1914/1918
BKN020
BECMG 1914/1916 23018G28KT
FM191800 23018G28KT P6SM BKN040 BKN100 TEMPO 1918/1921 P6SM -SHRA
BKN020 OVC040
FM192100 22018G28KT P6SM -RA OVC020 TEMPO 1921/1923 4SM -RA BR
BKN007 OVC020
FM192300 22018G28KT 6SM -RA BR OVC008 TEMPO 1923/2002 3SM -RA BR
OVC005
RMK NXT FCST BY 192000Z=
Your time UTC time
Weather data provided by Environment Canada and NAV CANADA